sensor_id;sensor_type;location;lat;lon;timestamp;temperature;humidity
32664;DHT22;19847;48.670;9.242;2022-10-03T00:00:23;10.30;99.90
32664;DHT22;19847;48.670;9.242;2022-10-03T00:03:47;10.20;99.90
32664;DHT22;19847;48.670;9.242;2022-10-03T00:07:20;10.10;99.90
32664;DHT22;19847;48.670;9.242;2022-10-03T00:10:49;10.10;99.90
32664;DHT22;19847;48.670;9.242;2022-10-03T00:14:15;10.00;99.90
32664;DHT22;19847;48.670;9.242;2022-10-03T00:17:40;10.00;99.90
32664;DHT22;19847;48.670;9.242;2022-10-03T00:21:08;10.00;99.90
32664;DHT22;19847;48.670;9.242;2022-10-03T00:24:38;9.90;99.90
32664;DHT22;19847;48.670;9.242;2022-10-03T00:28:06;9.80;99.90
32664;DHT22;19847;48.670;9.242;2022-10-03T00:31:36;9.70;99.90
32664;DHT22;19847;48.670;9.242;2022-10-03T00:35:03;9.70;99.90
32664;DHT22;19847;48.670;9.242;2022-10-03T00:38:39;9.70;99.90
32664;DHT22;19847;48.670;9.242;2022-10-03T00:45:56;9.60;99.90
32664;DHT22;19847;48.670;9.242;2022-10-03T00:49:31;9.60;99.90
32664;DHT22;19847;48.670;9.242;2022-10-03T00:53:01;9.60;99.90
32664;DHT22;19847;48.670;9.242;2022-10-03T00:56:28;9.60;99.90
32664;DHT22;19847;48.670;9.242;2022-10-03T01:00:01;9.60;99.90
32664;DHT22;19847;48.670;9.242;2022-10-03T01:03:27;9.60;99.90
32664;DHT22;19847;48.670;9.242;2022-10-03T01:06:54;9.50;99.90
32664;DHT22;19847;48.670;9.242;2022-10-03T01:10:20;9.50;99.90
32664;DHT22;19847;48.670;9.242;2022-10-03T01:13:45;9.40;99.90
32664;DHT22;19847;48.670;9.242;2022-10-03T01:17:11;9.30;99.90
32664;DHT22;19847;48.670;9.242;2022-10-03T01:20:37;9.30;99.90
32664;DHT22;19847;48.670;9.242;2022-10-03T01:24:09;9.30;99.90
32664;DHT22;19847;48.670;9.242;2022-10-03T01:27:36;9.20;99.90
32664;DHT22;19847;48.670;9.242;2022-10-03T01:31:00;9.20;99.90
32664;DHT22;19847;48.670;9.242;2022-10-03T01:34:26;9.20;99.90
32664;DHT22;19847;48.670;9.242;2022-10-03T01:37:51;9.30;99.90
32664;DHT22;19847;48.670;9.242;2022-10-03T01:41:16;9.40;99.90
32664;DHT22;19847;48.670;9.242;2022-10-03T01:44:46;9.50;99.90
32664;DHT22;19847;48.670;9.242;2022-10-03T01:48:13;9.60;99.90
32664;DHT22;19847;48.670;9.242;2022-10-03T01:51:40;9.70;99.90
32664;DHT22;19847;48.670;9.242;2022-10-03T01:55:04;9.70;99.90
32664;DHT22;19847;48.670;9.242;2022-10-03T01:58:32;9.70;99.90
32664;DHT22;19847;48.670;9.242;2022-10-03T02:02:00;9.80;99.90
32664;DHT22;19847;48.670;9.242;2022-10-03T02:05:35;9.80;99.90
32664;DHT22;19847;48.670;9.242;2022-10-03T02:08:59;9.90;99.90
32664;DHT22;19847;48.670;9.242;2022-10-03T02:12:25;9.80;99.90
32664;DHT22;19847;48.670;9.242;2022-10-03T02:15:50;9.90;99.90
32664;DHT22;19847;48.670;9.242;2022-10-03T02:19:17;9.90;99.90
32664;DHT22;19847;48.670;9.242;2022-10-03T02:22:43;10.00;99.90
32664;DHT22;19847;48.670;9.242;2022-10-03T02:26:19;10.00;99.90
32664;DHT22;19847;48.670;9.242;2022-10-03T02:33:35;10.20;99.90
32664;DHT22;19847;48.670;9.242;2022-10-03T02:37:15;10.20;99.90
32664;DHT22;19847;48.670;9.242;2022-10-03T02:40:52;10.20;99.90
32664;DHT22;19847;48.670;9.242;2022-10-03T02:44:20;10.20;99.90
32664;DHT22;19847;48.670;9.242;2022-10-03T02:48:02;10.30;99.90
32664;DHT22;19847;48.670;9.242;2022-10-03T02:51:58;10.30;99.90
32664;DHT22;19847;48.670;9.242;2022-10-03T02:55:44;10.30;99.90
32664;DHT22;19847;48.670;9.242;2022-10-03T02:59:29;10.30;99.90
32664;DHT22;19847;48.670;9.242;2022-10-03T03:03:00;10.40;99.90
32664;DHT22;19847;48.670;9.242;2022-10-03T03:10:13;10.40;99.90
32664;DHT22;19847;48.670;9.242;2022-10-03T03:17:33;10.50;99.90
32664;DHT22;19847;48.670;9.242;2022-10-03T03:21:02;10.50;99.90
32664;DHT22;19847;48.670;9.242;2022-10-03T03:24:31;10.50;99.90
32664;DHT22;19847;48.670;9.242;2022-10-03T03:28:00;10.50;99.90
32664;DHT22;19847;48.670;9.242;2022-10-03T03:31:24;10.40;99.90
32664;DHT22;19847;48.670;9.242;2022-10-03T03:34:51;10.30;99.90
32664;DHT22;19847;48.670;9.242;2022-10-03T03:38:19;10.20;99.90
32664;DHT22;19847;48.670;9.242;2022-10-03T03:41:45;10.00;99.90
32664;DHT22;19847;48.670;9.242;2022-10-03T03:45:15;9.90;99.90
32664;DHT22;19847;48.670;9.242;2022-10-03T03:48:57;9.70;99.90
32664;DHT22;19847;48.670;9.242;2022-10-03T03:52:25;9.60;99.90
32664;DHT22;19847;48.670;9.242;2022-10-03T03:55:57;9.50;99.90
32664;DHT22;19847;48.670;9.242;2022-10-03T03:59:29;9.40;99.90
32664;DHT22;19847;48.670;9.242;2022-10-03T04:02:57;9.40;99.90
32664;DHT22;19847;48.670;9.242;2022-10-03T04:06:28;9.30;99.90
32664;DHT22;19847;48.670;9.242;2022-10-03T04:10:10;9.20;99.90
32664;DHT22;19847;48.670;9.242;2022-10-03T04:13:38;9.20;99.90
32664;DHT22;19847;48.670;9.242;2022-10-03T04:17:09;9.10;99.90
32664;DHT22;19847;48.670;9.242;2022-10-03T04:20:37;9.10;99.90
32664;DHT22;19847;48.670;9.242;2022-10-03T04:24:10;9.10;99.90
32664;DHT22;19847;48.670;9.242;2022-10-03T04:27:44;9.00;99.90
32664;DHT22;19847;48.670;9.242;2022-10-03T04:31:14;9.00;99.90
32664;DHT22;19847;48.670;9.242;2022-10-03T04:34:42;9.00;99.90
32664;DHT22;19847;48.670;9.242;2022-10-03T04:38:10;9.10;99.90
32664;DHT22;19847;48.670;9.242;2022-10-03T04:41:36;9.20;99.90
32664;DHT22;19847;48.670;9.242;2022-10-03T04:45:09;9.30;99.90
32664;DHT22;19847;48.670;9.242;2022-10-03T04:48:35;9.40;99.90
32664;DHT22;19847;48.670;9.242;2022-10-03T04:51:59;9.40;99.90
32664;DHT22;19847;48.670;9.242;2022-10-03T04:55:24;9.40;99.90
32664;DHT22;19847;48.670;9.242;2022-10-03T04:58:49;9.40;99.90
32664;DHT22;19847;48.670;9.242;2022-10-03T05:02:22;9.30;99.90
32664;DHT22;19847;48.670;9.242;2022-10-03T05:05:47;9.20;99.90
32664;DHT22;19847;48.670;9.242;2022-10-03T05:09:19;9.20;99.90
32664;DHT22;19847;48.670;9.242;2022-10-03T05:12:44;9.20;99.90
32664;DHT22;19847;48.670;9.242;2022-10-03T05:16:10;9.30;99.90
32664;DHT22;19847;48.670;9.242;2022-10-03T05:19:41;9.40;99.90
32664;DHT22;19847;48.670;9.242;2022-10-03T05:23:11;9.50;99.90
32664;DHT22;19847;48.670;9.242;2022-10-03T05:26:39;9.60;99.90
32664;DHT22;19847;48.670;9.242;2022-10-03T05:30:06;9.70;99.90
32664;DHT22;19847;48.670;9.242;2022-10-03T05:33:32;9.70;99.90
32664;DHT22;19847;48.670;9.242;2022-10-03T05:37:07;9.80;99.90
32664;DHT22;19847;48.670;9.242;2022-10-03T05:40:35;9.80;99.90
32664;DHT22;19847;48.670;9.242;2022-10-03T05:44:02;9.80;99.90
32664;DHT22;19847;48.670;9.242;2022-10-03T05:47:26;9.90;99.90
32664;DHT22;19847;48.670;9.242;2022-10-03T05:50:54;9.90;99.90
32664;DHT22;19847;48.670;9.242;2022-10-03T05:54:44;10.00;99.90
32664;DHT22;19847;48.670;9.242;2022-10-03T05:58:21;10.00;99.90
32664;DHT22;19847;48.670;9.242;2022-10-03T06:01:57;10.10;99.90
32664;DHT22;19847;48.670;9.242;2022-10-03T06:05:27;10.20;99.90
32664;DHT22;19847;48.670;9.242;2022-10-03T06:08:51;10.20;99.90
32664;DHT22;19847;48.670;9.242;2022-10-03T06:12:16;10.20;99.90
32664;DHT22;19847;48.670;9.242;2022-10-03T06:15:52;10.20;99.90
32664;DHT22;19847;48.670;9.242;2022-10-03T06:19:18;10.30;99.90
32664;DHT22;19847;48.670;9.242;2022-10-03T06:22:50;10.40;99.90
32664;DHT22;19847;48.670;9.242;2022-10-03T06:26:31;10.40;99.90
32664;DHT22;19847;48.670;9.242;2022-10-03T06:30:07;10.40;99.90
32664;DHT22;19847;48.670;9.242;2022-10-03T06:33:37;10.50;99.90
32664;DHT22;19847;48.670;9.242;2022-10-03T06:44:39;10.90;99.90
32664;DHT22;19847;48.670;9.242;2022-10-03T06:48:12;11.10;99.90
32664;DHT22;19847;48.670;9.242;2022-10-03T06:51:45;11.10;99.90
32664;DHT22;19847;48.670;9.242;2022-10-03T06:55:20;11.10;99.90
32664;DHT22;19847;48.670;9.242;2022-10-03T06:58:56;11.10;99.90
32664;DHT22;19847;48.670;9.242;2022-10-03T07:02:28;11.10;99.90
32664;DHT22;19847;48.670;9.242;2022-10-03T07:06:05;11.10;99.90
32664;DHT22;19847;48.670;9.242;2022-10-03T07:13:24;11.20;99.90
32664;DHT22;19847;48.670;9.242;2022-10-03T07:16:54;11.20;99.90
32664;DHT22;19847;48.670;9.242;2022-10-03T07:20:25;11.30;99.90
32664;DHT22;19847;48.670;9.242;2022-10-03T07:23:57;11.60;99.90
32664;DHT22;19847;48.670;9.242;2022-10-03T07:27:25;11.70;99.90
32664;DHT22;19847;48.670;9.242;2022-10-03T07:30:52;11.90;99.90
32664;DHT22;19847;48.670;9.242;2022-10-03T07:34:30;11.90;99.90
32664;DHT22;19847;48.670;9.242;2022-10-03T07:41:38;11.80;99.90
32664;DHT22;19847;48.670;9.242;2022-10-03T07:48:51;11.90;99.90
32664;DHT22;19847;48.670;9.242;2022-10-03T07:52:26;12.00;99.90
32664;DHT22;19847;48.670;9.242;2022-10-03T07:59:38;12.10;99.90
32664;DHT22;19847;48.670;9.242;2022-10-03T08:06:46;12.30;99.90
32664;DHT22;19847;48.670;9.242;2022-10-03T08:10:15;12.40;99.90
32664;DHT22;19847;48.670;9.242;2022-10-03T08:13:41;12.40;99.90
32664;DHT22;19847;48.670;9.242;2022-10-03T08:20:54;12.30;99.90
32664;DHT22;19847;48.670;9.242;2022-10-03T08:24:20;12.40;99.90
32664;DHT22;19847;48.670;9.242;2022-10-03T08:27:50;12.50;99.90
32664;DHT22;19847;48.670;9.242;2022-10-03T08:31:19;12.50;99.90
32664;DHT22;19847;48.670;9.242;2022-10-03T08:34:51;12.50;99.90
32664;DHT22;19847;48.670;9.242;2022-10-03T08:38:31;12.40;99.90
32664;DHT22;19847;48.670;9.242;2022-10-03T08:45:53;12.50;99.90
32664;DHT22;19847;48.670;9.242;2022-10-03T08:53:17;12.70;99.90
32664;DHT22;19847;48.670;9.242;2022-10-03T08:56:50;13.00;99.90
32664;DHT22;19847;48.670;9.242;2022-10-03T09:00:17;13.20;99.90
32664;DHT22;19847;48.670;9.242;2022-10-03T09:03:52;13.70;99.90
32664;DHT22;19847;48.670;9.242;2022-10-03T09:07:23;14.00;99.90
32664;DHT22;19847;48.670;9.242;2022-10-03T09:10:53;14.10;99.90
32664;DHT22;19847;48.670;9.242;2022-10-03T09:14:40;14.30;99.90
32664;DHT22;19847;48.670;9.242;2022-10-03T09:18:16;14.70;99.90
32664;DHT22;19847;48.670;9.242;2022-10-03T09:21:47;15.00;99.90
32664;DHT22;19847;48.670;9.242;2022-10-03T09:25:20;15.90;99.90
32664;DHT22;19847;48.670;9.242;2022-10-03T09:28:47;17.70;99.90
32664;DHT22;19847;48.670;9.242;2022-10-03T09:32:24;18.60;99.90
32664;DHT22;19847;48.670;9.242;2022-10-03T09:36:02;19.40;99.90
32664;DHT22;19847;48.670;9.242;2022-10-03T09:43:21;18.00;99.90
32664;DHT22;19847;48.670;9.242;2022-10-03T09:47:04;18.20;99.90
32664;DHT22;19847;48.670;9.242;2022-10-03T09:50:52;18.30;99.90
32664;DHT22;19847;48.670;9.242;2022-10-03T09:54:21;18.20;99.90
32664;DHT22;19847;48.670;9.242;2022-10-03T10:01:24;18.00;99.90
32664;DHT22;19847;48.670;9.242;2022-10-03T10:04:56;19.00;99.90
32664;DHT22;19847;48.670;9.242;2022-10-03T10:08:34;20.00;99.90
32664;DHT22;19847;48.670;9.242;2022-10-03T10:15:48;20.10;99.90
32664;DHT22;19847;48.670;9.242;2022-10-03T10:19:24;20.60;99.90
32664;DHT22;19847;48.670;9.242;2022-10-03T10:22:57;20.40;99.90
32664;DHT22;19847;48.670;9.242;2022-10-03T10:30:19;18.90;99.90
32664;DHT22;19847;48.670;9.242;2022-10-03T10:45:05;16.70;99.90
32664;DHT22;19847;48.670;9.242;2022-10-03T10:48:44;16.60;99.90
32664;DHT22;19847;48.670;9.242;2022-10-03T10:52:34;16.70;99.90
32664;DHT22;19847;48.670;9.242;2022-10-03T10:56:23;17.20;99.90
32664;DHT22;19847;48.670;9.242;2022-10-03T11:07:19;16.70;99.90
32664;DHT22;19847;48.670;9.242;2022-10-03T11:10:54;16.40;99.90
32664;DHT22;19847;48.670;9.242;2022-10-03T11:33:12;14.80;99.90
32664;DHT22;19847;48.670;9.242;2022-10-03T11:36:51;14.80;99.90
32664;DHT22;19847;48.670;9.242;2022-10-03T11:40:26;14.90;99.90
32664;DHT22;19847;48.670;9.242;2022-10-03T11:44:02;15.20;99.90
32664;DHT22;19847;48.670;9.242;2022-10-03T11:47:30;15.30;99.90
32664;DHT22;19847;48.670;9.242;2022-10-03T11:50:56;15.30;99.90
32664;DHT22;19847;48.670;9.242;2022-10-03T11:54:21;15.20;99.90
32664;DHT22;19847;48.670;9.242;2022-10-03T11:57:55;15.30;99.90
32664;DHT22;19847;48.670;9.242;2022-10-03T12:01:22;15.40;99.90
32664;DHT22;19847;48.670;9.242;2022-10-03T12:04:50;15.40;99.90
32664;DHT22;19847;48.670;9.242;2022-10-03T12:08:17;15.60;99.90
32664;DHT22;19847;48.670;9.242;2022-10-03T12:11:42;15.70;99.90
32664;DHT22;19847;48.670;9.242;2022-10-03T12:15:19;15.70;99.90
32664;DHT22;19847;48.670;9.242;2022-10-03T12:18:48;15.60;99.90
32664;DHT22;19847;48.670;9.242;2022-10-03T12:22:14;15.40;99.90
32664;DHT22;19847;48.670;9.242;2022-10-03T12:25:40;15.30;99.90
32664;DHT22;19847;48.670;9.242;2022-10-03T12:29:03;15.20;99.90
32664;DHT22;19847;48.670;9.242;2022-10-03T12:32:31;15.20;99.90
32664;DHT22;19847;48.670;9.242;2022-10-03T12:35:58;15.30;99.90
32664;DHT22;19847;48.670;9.242;2022-10-03T12:39:25;15.50;99.90
32664;DHT22;19847;48.670;9.242;2022-10-03T12:42:59;15.80;99.90
32664;DHT22;19847;48.670;9.242;2022-10-03T12:46:24;15.90;99.90
32664;DHT22;19847;48.670;9.242;2022-10-03T12:49:51;16.00;99.90
32664;DHT22;19847;48.670;9.242;2022-10-03T12:53:18;16.20;99.90
32664;DHT22;19847;48.670;9.242;2022-10-03T12:56:42;16.30;99.90
32664;DHT22;19847;48.670;9.242;2022-10-03T13:00:08;16.10;99.90
32664;DHT22;19847;48.670;9.242;2022-10-03T13:03:35;16.10;99.90
32664;DHT22;19847;48.670;9.242;2022-10-03T13:07:03;16.00;99.90
32664;DHT22;19847;48.670;9.242;2022-10-03T13:10:31;15.80;99.90
32664;DHT22;19847;48.670;9.242;2022-10-03T13:14:10;15.60;99.90
32664;DHT22;19847;48.670;9.242;2022-10-03T13:17:37;15.30;99.90
32664;DHT22;19847;48.670;9.242;2022-10-03T13:21:02;15.00;99.90
32664;DHT22;19847;48.670;9.242;2022-10-03T13:24:43;14.80;99.90
32664;DHT22;19847;48.670;9.242;2022-10-03T13:28:11;14.70;99.90
32664;DHT22;19847;48.670;9.242;2022-10-03T13:31:34;14.60;99.90
32664;DHT22;19847;48.670;9.242;2022-10-03T13:35:12;14.50;99.90
32664;DHT22;19847;48.670;9.242;2022-10-03T13:42:18;14.60;99.90
32664;DHT22;19847;48.670;9.242;2022-10-03T13:45:42;14.90;99.90
32664;DHT22;19847;48.670;9.242;2022-10-03T13:49:10;15.00;99.90
32664;DHT22;19847;48.670;9.242;2022-10-03T13:52:38;15.20;99.90
32664;DHT22;19847;48.670;9.242;2022-10-03T13:56:02;15.20;99.90
32664;DHT22;19847;48.670;9.242;2022-10-03T13:59:34;15.10;99.90
32664;DHT22;19847;48.670;9.242;2022-10-03T14:02:59;15.10;99.90
32664;DHT22;19847;48.670;9.242;2022-10-03T14:06:24;15.00;99.90
32664;DHT22;19847;48.670;9.242;2022-10-03T14:10:03;15.00;99.90
32664;DHT22;19847;48.670;9.242;2022-10-03T14:13:29;15.10;99.90
32664;DHT22;19847;48.670;9.242;2022-10-03T14:16:53;15.30;99.90
32664;DHT22;19847;48.670;9.242;2022-10-03T14:20:21;15.30;99.90
32664;DHT22;19847;48.670;9.242;2022-10-03T14:23:46;15.30;99.90
32664;DHT22;19847;48.670;9.242;2022-10-03T14:27:18;15.30;99.90
32664;DHT22;19847;48.670;9.242;2022-10-03T14:30:45;15.30;99.90
32664;DHT22;19847;48.670;9.242;2022-10-03T14:34:32;15.30;99.90
32664;DHT22;19847;48.670;9.242;2022-10-03T14:37:57;15.40;99.90
32664;DHT22;19847;48.670;9.242;2022-10-03T14:41:24;15.40;99.90
32664;DHT22;19847;48.670;9.242;2022-10-03T14:44:51;15.50;99.90
32664;DHT22;19847;48.670;9.242;2022-10-03T14:48:15;15.70;99.90
32664;DHT22;19847;48.670;9.242;2022-10-03T14:51:38;15.90;99.90
32664;DHT22;19847;48.670;9.242;2022-10-03T14:55:06;15.90;99.90
32664;DHT22;19847;48.670;9.242;2022-10-03T14:58:29;15.80;99.90
32664;DHT22;19847;48.670;9.242;2022-10-03T15:01:54;15.70;99.90
32664;DHT22;19847;48.670;9.242;2022-10-03T15:05:20;15.80;99.90
32664;DHT22;19847;48.670;9.242;2022-10-03T15:08:43;15.90;99.90
32664;DHT22;19847;48.670;9.242;2022-10-03T15:12:07;16.00;99.90
32664;DHT22;19847;48.670;9.242;2022-10-03T15:15:31;16.10;99.90
32664;DHT22;19847;48.670;9.242;2022-10-03T15:18:57;16.10;99.90
32664;DHT22;19847;48.670;9.242;2022-10-03T15:22:29;16.20;99.90
32664;DHT22;19847;48.670;9.242;2022-10-03T15:25:52;16.30;99.90
32664;DHT22;19847;48.670;9.242;2022-10-03T15:29:15;16.30;99.90
32664;DHT22;19847;48.670;9.242;2022-10-03T15:32:38;16.40;99.90
32664;DHT22;19847;48.670;9.242;2022-10-03T15:36:05;16.40;99.90
32664;DHT22;19847;48.670;9.242;2022-10-03T15:39:29;16.40;99.90
32664;DHT22;19847;48.670;9.242;2022-10-03T15:42:59;16.20;99.90
32664;DHT22;19847;48.670;9.242;2022-10-03T15:46:27;16.00;99.90
32664;DHT22;19847;48.670;9.242;2022-10-03T15:49:51;15.90;99.90
32664;DHT22;19847;48.670;9.242;2022-10-03T15:53:17;15.70;99.90
32664;DHT22;19847;48.670;9.242;2022-10-03T15:56:57;15.60;99.90
32664;DHT22;19847;48.670;9.242;2022-10-03T16:00:22;15.50;99.90
32664;DHT22;19847;48.670;9.242;2022-10-03T16:03:47;15.40;99.90
32664;DHT22;19847;48.670;9.242;2022-10-03T16:07:10;15.30;99.90
32664;DHT22;19847;48.670;9.242;2022-10-03T16:10:34;15.10;99.90
32664;DHT22;19847;48.670;9.242;2022-10-03T16:14:00;14.90;99.90
32664;DHT22;19847;48.670;9.242;2022-10-03T16:17:28;14.70;99.90
32664;DHT22;19847;48.670;9.242;2022-10-03T16:20:52;14.60;99.90
32664;DHT22;19847;48.670;9.242;2022-10-03T16:24:17;14.50;99.90
32664;DHT22;19847;48.670;9.242;2022-10-03T16:27:44;14.40;99.90
32664;DHT22;19847;48.670;9.242;2022-10-03T16:31:10;14.30;99.90
32664;DHT22;19847;48.670;9.242;2022-10-03T16:34:33;14.20;99.90
32664;DHT22;19847;48.670;9.242;2022-10-03T16:37:55;14.10;99.90
32664;DHT22;19847;48.670;9.242;2022-10-03T16:41:18;14.00;99.90
32664;DHT22;19847;48.670;9.242;2022-10-03T16:44:46;13.80;99.90
32664;DHT22;19847;48.670;9.242;2022-10-03T16:48:10;13.60;99.90
32664;DHT22;19847;48.670;9.242;2022-10-03T16:51:35;13.50;99.90
32664;DHT22;19847;48.670;9.242;2022-10-03T16:54:59;13.40;99.90
32664;DHT22;19847;48.670;9.242;2022-10-03T16:58:23;13.20;99.90
32664;DHT22;19847;48.670;9.242;2022-10-03T17:01:48;13.10;99.90
32664;DHT22;19847;48.670;9.242;2022-10-03T17:05:11;13.00;99.90
32664;DHT22;19847;48.670;9.242;2022-10-03T17:08:46;12.80;99.90
32664;DHT22;19847;48.670;9.242;2022-10-03T17:12:12;12.70;99.90
32664;DHT22;19847;48.670;9.242;2022-10-03T17:15:40;12.50;99.90
32664;DHT22;19847;48.670;9.242;2022-10-03T17:19:11;12.40;99.90
32664;DHT22;19847;48.670;9.242;2022-10-03T17:22:35;12.20;99.90
32664;DHT22;19847;48.670;9.242;2022-10-03T17:26:02;12.10;99.90
32664;DHT22;19847;48.670;9.242;2022-10-03T17:29:27;12.00;99.90
32664;DHT22;19847;48.670;9.242;2022-10-03T17:32:52;11.90;99.90
32664;DHT22;19847;48.670;9.242;2022-10-03T17:36:26;11.70;99.90
32664;DHT22;19847;48.670;9.242;2022-10-03T17:39:53;11.60;99.90
32664;DHT22;19847;48.670;9.242;2022-10-03T17:43:16;11.40;99.90
32664;DHT22;19847;48.670;9.242;2022-10-03T17:46:39;11.30;99.90
32664;DHT22;19847;48.670;9.242;2022-10-03T17:50:03;11.10;99.90
32664;DHT22;19847;48.670;9.242;2022-10-03T17:53:29;11.10;99.90
32664;DHT22;19847;48.670;9.242;2022-10-03T17:56:53;11.00;99.90
32664;DHT22;19847;48.670;9.242;2022-10-03T18:00:18;10.90;99.90
32664;DHT22;19847;48.670;9.242;2022-10-03T18:03:45;10.80;99.90
32664;DHT22;19847;48.670;9.242;2022-10-03T18:07:10;10.70;99.90
32664;DHT22;19847;48.670;9.242;2022-10-03T18:10:35;10.60;99.90
32664;DHT22;19847;48.670;9.242;2022-10-03T18:13:59;10.60;99.90
32664;DHT22;19847;48.670;9.242;2022-10-03T18:17:23;10.50;99.90
32664;DHT22;19847;48.670;9.242;2022-10-03T18:20:47;10.40;99.90
32664;DHT22;19847;48.670;9.242;2022-10-03T18:24:12;10.30;99.90
32664;DHT22;19847;48.670;9.242;2022-10-03T18:27:46;10.30;99.90
32664;DHT22;19847;48.670;9.242;2022-10-03T18:31:14;10.30;99.90
32664;DHT22;19847;48.670;9.242;2022-10-03T18:34:37;10.20;99.90
32664;DHT22;19847;48.670;9.242;2022-10-03T18:38:04;10.10;99.90
32664;DHT22;19847;48.670;9.242;2022-10-03T18:41:27;10.00;99.90
32664;DHT22;19847;48.670;9.242;2022-10-03T18:44:50;10.00;99.90
32664;DHT22;19847;48.670;9.242;2022-10-03T18:48:13;9.80;99.90
32664;DHT22;19847;48.670;9.242;2022-10-03T18:51:38;9.80;99.90
32664;DHT22;19847;48.670;9.242;2022-10-03T18:55:03;9.70;99.90
32664;DHT22;19847;48.670;9.242;2022-10-03T18:58:30;9.70;99.90
32664;DHT22;19847;48.670;9.242;2022-10-03T19:01:55;9.60;99.90
32664;DHT22;19847;48.670;9.242;2022-10-03T19:05:19;9.50;99.90
32664;DHT22;19847;48.670;9.242;2022-10-03T19:08:41;9.50;99.90
32664;DHT22;19847;48.670;9.242;2022-10-03T19:12:08;9.40;99.90
32664;DHT22;19847;48.670;9.242;2022-10-03T19:15:36;9.40;99.90
32664;DHT22;19847;48.670;9.242;2022-10-03T19:19:05;9.30;99.90
32664;DHT22;19847;48.670;9.242;2022-10-03T19:22:27;9.20;99.90
32664;DHT22;19847;48.670;9.242;2022-10-03T19:25:51;9.20;99.90
32664;DHT22;19847;48.670;9.242;2022-10-03T19:29:14;9.10;99.90
32664;DHT22;19847;48.670;9.242;2022-10-03T19:32:44;9.00;99.90
32664;DHT22;19847;48.670;9.242;2022-10-03T19:36:11;9.00;99.90
32664;DHT22;19847;48.670;9.242;2022-10-03T19:39:34;8.90;99.90
32664;DHT22;19847;48.670;9.242;2022-10-03T19:43:12;8.90;99.90
32664;DHT22;19847;48.670;9.242;2022-10-03T19:46:46;8.80;99.90
32664;DHT22;19847;48.670;9.242;2022-10-03T19:50:09;8.70;99.90
32664;DHT22;19847;48.670;9.242;2022-10-03T19:53:36;8.70;99.90
32664;DHT22;19847;48.670;9.242;2022-10-03T19:57:02;8.70;99.90
32664;DHT22;19847;48.670;9.242;2022-10-03T20:00:26;8.70;99.90
32664;DHT22;19847;48.670;9.242;2022-10-03T20:03:50;8.70;99.90
32664;DHT22;19847;48.670;9.242;2022-10-03T20:07:14;8.70;99.90
32664;DHT22;19847;48.670;9.242;2022-10-03T20:10:46;8.70;99.90
32664;DHT22;19847;48.670;9.242;2022-10-03T20:14:12;8.60;99.90
32664;DHT22;19847;48.670;9.242;2022-10-03T20:17:35;8.60;99.90
32664;DHT22;19847;48.670;9.242;2022-10-03T20:20:57;8.50;99.90
32664;DHT22;19847;48.670;9.242;2022-10-03T20:24:21;8.50;99.90
32664;DHT22;19847;48.670;9.242;2022-10-03T20:27:49;8.40;99.90
32664;DHT22;19847;48.670;9.242;2022-10-03T20:31:17;8.30;99.90
32664;DHT22;19847;48.670;9.242;2022-10-03T20:34:44;8.30;99.90
32664;DHT22;19847;48.670;9.242;2022-10-03T20:38:10;8.30;99.90
32664;DHT22;19847;48.670;9.242;2022-10-03T20:41:39;8.20;99.90
32664;DHT22;19847;48.670;9.242;2022-10-03T20:45:12;8.20;99.90
32664;DHT22;19847;48.670;9.242;2022-10-03T20:48:38;8.20;99.90
32664;DHT22;19847;48.670;9.242;2022-10-03T20:52:06;8.20;99.90
32664;DHT22;19847;48.670;9.242;2022-10-03T20:55:33;8.10;99.90
32664;DHT22;19847;48.670;9.242;2022-10-03T20:59:03;8.10;99.90
32664;DHT22;19847;48.670;9.242;2022-10-03T21:02:35;8.10;99.90
32664;DHT22;19847;48.670;9.242;2022-10-03T21:06:00;8.00;99.90
32664;DHT22;19847;48.670;9.242;2022-10-03T21:09:26;8.00;99.90
32664;DHT22;19847;48.670;9.242;2022-10-03T21:12:52;8.00;99.90
32664;DHT22;19847;48.670;9.242;2022-10-03T21:16:18;7.90;99.90
32664;DHT22;19847;48.670;9.242;2022-10-03T21:19:43;7.80;99.90
32664;DHT22;19847;48.670;9.242;2022-10-03T21:30:44;7.80;99.90
32664;DHT22;19847;48.670;9.242;2022-10-03T21:34:12;7.70;99.90
32664;DHT22;19847;48.670;9.242;2022-10-03T21:37:41;7.70;99.90
32664;DHT22;19847;48.670;9.242;2022-10-03T21:44:48;7.70;99.90
32664;DHT22;19847;48.670;9.242;2022-10-03T21:48:15;7.60;99.90
32664;DHT22;19847;48.670;9.242;2022-10-03T21:51:43;7.60;99.90
32664;DHT22;19847;48.670;9.242;2022-10-03T21:55:10;7.60;99.90
32664;DHT22;19847;48.670;9.242;2022-10-03T22:02:14;7.60;99.90
32664;DHT22;19847;48.670;9.242;2022-10-03T22:05:40;7.60;99.90
32664;DHT22;19847;48.670;9.242;2022-10-03T22:09:04;7.50;99.90
32664;DHT22;19847;48.670;9.242;2022-10-03T22:12:41;7.50;99.90
32664;DHT22;19847;48.670;9.242;2022-10-03T22:16:04;7.40;99.90
32664;DHT22;19847;48.670;9.242;2022-10-03T22:19:31;7.40;99.90
32664;DHT22;19847;48.670;9.242;2022-10-03T22:22:59;7.40;99.90
32664;DHT22;19847;48.670;9.242;2022-10-03T22:26:24;7.30;99.90
32664;DHT22;19847;48.670;9.242;2022-10-03T22:29:52;7.30;99.90
32664;DHT22;19847;48.670;9.242;2022-10-03T22:33:17;7.30;99.90
32664;DHT22;19847;48.670;9.242;2022-10-03T22:36:42;7.20;99.90
32664;DHT22;19847;48.670;9.242;2022-10-03T22:40:04;7.20;99.90
32664;DHT22;19847;48.670;9.242;2022-10-03T22:43:26;7.20;99.90
32664;DHT22;19847;48.670;9.242;2022-10-03T22:46:50;7.20;99.90
32664;DHT22;19847;48.670;9.242;2022-10-03T22:50:14;7.10;99.90
32664;DHT22;19847;48.670;9.242;2022-10-03T22:53:39;7.10;99.90
32664;DHT22;19847;48.670;9.242;2022-10-03T22:57:04;7.00;99.90
32664;DHT22;19847;48.670;9.242;2022-10-03T23:00:28;6.90;99.90
32664;DHT22;19847;48.670;9.242;2022-10-03T23:03:51;6.90;99.90
32664;DHT22;19847;48.670;9.242;2022-10-03T23:07:21;6.90;99.90
32664;DHT22;19847;48.670;9.242;2022-10-03T23:10:47;6.90;99.90
32664;DHT22;19847;48.670;9.242;2022-10-03T23:14:12;6.90;99.90
32664;DHT22;19847;48.670;9.242;2022-10-03T23:17:43;6.80;99.90
32664;DHT22;19847;48.670;9.242;2022-10-03T23:21:08;6.80;99.90
32664;DHT22;19847;48.670;9.242;2022-10-03T23:24:31;6.80;99.90
32664;DHT22;19847;48.670;9.242;2022-10-03T23:28:00;6.70;99.90
32664;DHT22;19847;48.670;9.242;2022-10-03T23:35:11;6.70;99.90
32664;DHT22;19847;48.670;9.242;2022-10-03T23:42:40;6.60;99.90
32664;DHT22;19847;48.670;9.242;2022-10-03T23:46:03;6.70;99.90
32664;DHT22;19847;48.670;9.242;2022-10-03T23:49:26;6.60;99.90
32664;DHT22;19847;48.670;9.242;2022-10-03T23:52:50;6.70;99.90
